createdAt,value
2018-05-16T00:00:04.091Z,7.50
2018-05-16T00:02:33.719Z,6.93
2018-05-16T00:05:02.951Z,6.82
2018-05-16T00:07:32.188Z,7.37
2018-05-16T00:10:02.239Z,8.40
2018-05-16T00:12:31.486Z,8.10
2018-05-16T00:15:00.719Z,7.45
2018-05-16T00:17:30.366Z,7.80
2018-05-16T00:19:59.679Z,7.50
2018-05-16T00:22:29.674Z,8.05
2018-05-16T00:24:59.047Z,7.62
2018-05-16T00:27:28.267Z,7.68
2018-05-16T00:29:57.932Z,8.23
2018-05-16T00:32:27.179Z,7.97
2018-05-16T00:34:56.703Z,8.50
2018-05-16T00:37:25.917Z,8.38
2018-05-16T00:39:55.251Z,8.38
2018-05-16T00:42:24.494Z,8.50
2018-05-16T00:44:53.834Z,8.98
2018-05-16T00:47:23.069Z,8.45
2018-05-16T00:49:52.420Z,8.50
2018-05-16T00:52:21.646Z,8.57
2018-05-16T00:54:50.991Z,8.60
2018-05-16T00:57:20.283Z,8.77
2018-05-16T00:59:49.486Z,7.68
2018-05-16T01:02:18.835Z,7.70
2018-05-16T01:04:48.075Z,7.68
2018-05-16T01:07:17.432Z,8.25
2018-05-16T01:09:46.667Z,8.18
2018-05-16T01:12:15.990Z,8.40
2018-05-16T01:14:45.227Z,9.10
2018-05-16T01:17:14.562Z,8.40
2018-05-16T01:19:43.794Z,8.40
2018-05-16T01:22:13.137Z,9.55
2018-05-16T01:24:42.417Z,8.60
2018-05-16T01:27:11.768Z,9.65
2018-05-16T01:29:41.000Z,9.10
2018-05-16T01:32:10.528Z,9.30
2018-05-16T01:34:39.725Z,9.13
2018-05-16T01:37:10.030Z,9.48
2018-05-16T01:39:39.269Z,8.95
2018-05-16T01:42:08.627Z,10.43
2018-05-16T01:44:37.868Z,8.93
2018-05-16T01:47:21.770Z,8.80
2018-05-16T01:49:51.011Z,9.57
2018-05-16T01:52:21.193Z,8.52
2018-05-16T01:54:50.423Z,9.52
2018-05-16T01:57:19.649Z,9.35
2018-05-16T01:59:49.303Z,8.82
2018-05-16T02:02:18.539Z,8.85
2018-05-16T02:04:47.828Z,9.35
2018-05-16T02:07:17.428Z,9.57
2018-05-16T02:09:46.642Z,9.80
2018-05-16T02:12:15.874Z,9.00
2018-05-16T02:14:45.517Z,10.13
2018-05-16T02:17:14.755Z,9.70
2018-05-16T02:19:44.002Z,9.57
2018-05-16T02:22:13.630Z,9.95
2018-05-16T02:24:43.155Z,9.02
2018-05-16T02:27:13.159Z,8.57
2018-05-16T02:29:42.775Z,9.93
2018-05-16T02:32:12.770Z,8.82
2018-05-16T02:34:42.391Z,8.90
2018-05-16T02:37:12.711Z,10.30
2018-05-16T02:39:42.332Z,9.13
2018-05-16T02:42:11.941Z,9.35
2018-05-16T02:44:41.172Z,9.85
2018-05-16T02:47:10.952Z,9.00
2018-05-16T02:49:40.963Z,9.52
2018-05-16T02:52:10.569Z,10.18
2018-05-16T02:54:40.052Z,10.25
2018-05-16T02:57:09.291Z,9.35
2018-05-16T02:59:38.879Z,10.32
2018-05-16T03:02:08.122Z,10.10
2018-05-16T03:04:37.358Z,9.65
2018-05-16T03:07:06.993Z,10.30
2018-05-16T03:09:36.246Z,11.73
2018-05-16T03:12:05.488Z,10.93
2018-05-16T03:14:35.296Z,11.25
2018-05-16T03:17:04.539Z,10.20
2018-05-16T03:19:33.786Z,10.20
2018-05-16T03:22:04.857Z,9.82
2018-05-16T03:24:34.324Z,10.45
2018-05-16T03:27:03.563Z,10.27
2018-05-16T03:29:33.354Z,9.27
2018-05-16T03:32:02.598Z,10.18
2018-05-16T03:34:31.839Z,10.55
2018-05-16T03:37:01.455Z,10.60
2018-05-16T03:39:30.700Z,10.15
2018-05-16T03:41:59.939Z,9.98
2018-05-16T03:44:29.606Z,10.40
2018-05-16T03:46:58.895Z,9.93
2018-05-16T03:49:30.224Z,10.50
2018-05-16T03:51:59.540Z,10.35
2018-05-16T03:54:28.791Z,11.70
2018-05-16T03:56:58.531Z,9.75
2018-05-16T03:59:45.327Z,10.57
2018-05-16T04:02:32.767Z,9.98
2018-05-16T04:05:02.008Z,10.15
2018-05-16T04:07:31.247Z,10.98
2018-05-16T04:10:00.873Z,10.77
2018-05-16T04:12:30.114Z,10.00
2018-05-16T04:14:59.790Z,10.07
2018-05-16T04:17:29.444Z,11.12
2018-05-16T04:20:00.163Z,10.75
2018-05-16T04:22:29.840Z,10.45
2018-05-16T04:24:59.353Z,10.65
2018-05-16T04:27:30.087Z,10.40
2018-05-16T04:30:00.111Z,10.40
2018-05-16T04:32:29.914Z,10.35
2018-05-16T04:34:59.432Z,10.13
2018-05-16T04:37:29.743Z,10.35
2018-05-16T04:39:59.255Z,10.40
2018-05-16T04:42:28.775Z,10.52
2018-05-16T04:44:58.453Z,11.38
2018-05-16T04:47:28.579Z,11.32
2018-05-16T04:49:57.816Z,11.25
2018-05-16T04:52:27.617Z,11.40
2018-05-16T04:54:56.995Z,10.32
2018-05-16T04:57:27.433Z,10.75
2018-05-16T04:59:57.355Z,11.35
2018-05-16T05:02:26.588Z,10.70
2018-05-16T05:04:56.202Z,10.70
2018-05-16T05:07:26.350Z,11.00
2018-05-16T05:09:55.719Z,11.70
2018-05-16T05:12:25.298Z,11.80
2018-05-16T05:14:54.541Z,11.55
2018-05-16T05:17:23.925Z,12.52
2018-05-16T05:19:53.559Z,13.30
2018-05-16T05:22:22.813Z,13.18
2018-05-16T05:24:52.606Z,12.27
2018-05-16T05:27:22.134Z,11.65
2018-05-16T05:29:51.359Z,12.32
2018-05-16T05:32:20.594Z,11.70
2018-05-16T05:34:50.223Z,11.70
2018-05-16T05:37:19.467Z,11.60
2018-05-16T05:39:49.067Z,11.45
2018-05-16T05:42:19.318Z,11.70
2018-05-16T05:44:48.564Z,11.25
2018-05-16T05:47:17.835Z,11.02
2018-05-16T05:49:47.483Z,11.70
2018-05-16T05:52:17.501Z,10.93
2018-05-16T05:54:46.753Z,10.87
2018-05-16T05:57:16.410Z,10.63
2018-05-16T05:59:45.639Z,10.97
2018-05-16T06:02:14.893Z,10.63
2018-05-16T06:04:44.574Z,10.90
2018-05-16T06:07:13.806Z,10.73
2018-05-16T06:09:43.811Z,11.00
2018-05-16T06:12:13.437Z,11.03
2018-05-16T06:14:43.454Z,10.30
2018-05-16T06:17:12.685Z,11.50
2018-05-16T06:19:42.694Z,10.63
2018-05-16T06:22:11.965Z,10.73
2018-05-16T06:24:41.212Z,11.37
2018-05-16T06:27:10.777Z,10.93
2018-05-16T06:29:40.106Z,11.20
2018-05-16T06:32:09.390Z,10.57
2018-05-16T06:34:39.279Z,10.93
2018-05-16T06:37:09.027Z,11.10
2018-05-16T06:39:38.263Z,11.33
2018-05-16T06:42:07.891Z,11.10
2018-05-16T06:44:38.823Z,10.87
2018-05-16T06:47:09.254Z,11.83
2018-05-16T06:49:38.495Z,12.00
2018-05-16T06:52:08.514Z,10.90
2018-05-16T06:54:38.322Z,11.67
2018-05-16T06:57:08.332Z,13.20
2018-05-16T06:59:38.347Z,11.47
2018-05-16T07:02:08.642Z,13.70
2018-05-16T07:04:38.858Z,11.77
2018-05-16T07:07:08.920Z,11.90
2018-05-16T07:09:39.435Z,12.50
2018-05-16T07:12:09.446Z,11.83
2018-05-16T07:14:38.700Z,13.30
2018-05-16T07:17:08.358Z,13.43
2018-05-16T07:19:37.919Z,11.93
2018-05-16T07:22:07.302Z,11.33
2018-05-16T07:24:37.282Z,12.80
2018-05-16T07:27:06.526Z,12.00
2018-05-16T07:29:35.762Z,12.30
2018-05-16T07:32:05.805Z,12.30
2018-05-16T07:34:35.044Z,12.93
2018-05-16T07:37:04.290Z,12.40
2018-05-16T07:39:33.915Z,11.30
2018-05-16T07:42:03.547Z,15.27
2018-05-16T07:44:32.798Z,12.40
2018-05-16T07:47:02.832Z,11.53
2018-05-16T07:49:31.874Z,11.20
2018-05-16T07:52:01.124Z,11.30
2018-05-16T07:54:31.568Z,9.90
2018-05-16T07:57:01.219Z,9.80
2018-05-16T07:59:30.590Z,10.00
2018-05-16T08:02:01.177Z,10.13
2018-05-16T08:04:30.374Z,8.40
2018-05-16T08:06:59.607Z,8.07
2018-05-16T08:09:29.207Z,8.70
2018-05-16T08:11:58.434Z,7.40
2018-05-16T08:14:27.667Z,8.53
2018-05-16T08:16:57.315Z,8.33
2018-05-16T08:19:26.550Z,8.40
2018-05-16T08:21:56.015Z,7.60
2018-05-16T08:24:25.830Z,7.70
2018-05-16T08:26:55.057Z,8.03
2018-05-16T08:29:24.313Z,8.03
2018-05-16T08:31:53.934Z,7.70
2018-05-16T08:34:23.170Z,8.20
2018-05-16T08:36:52.509Z,8.20
2018-05-16T08:39:22.051Z,9.00
2018-05-16T08:41:51.292Z,8.07
2018-05-16T08:44:20.522Z,8.07
2018-05-16T08:46:50.153Z,8.33
2018-05-16T08:49:19.762Z,8.93
2018-05-16T08:51:49.820Z,9.60
2018-05-16T08:54:20.187Z,8.40
2018-05-16T08:56:49.440Z,7.77
2018-05-16T08:59:18.695Z,8.23
2018-05-16T09:01:48.239Z,7.43
2018-05-16T09:04:19.179Z,8.30
2018-05-16T09:06:49.287Z,7.93
2018-05-16T09:09:19.294Z,10.37
2018-05-16T09:11:48.699Z,7.47
2018-05-16T09:14:17.926Z,7.40
2018-05-16T09:16:47.295Z,7.20
2018-05-16T09:19:16.738Z,7.50
2018-05-16T09:21:46.114Z,8.10
2018-05-16T09:24:16.122Z,8.00
2018-05-16T09:26:45.538Z,7.40
2018-05-16T09:29:14.774Z,7.30
2018-05-16T09:31:44.148Z,7.80
2018-05-16T09:34:14.142Z,6.80
2018-05-16T09:36:43.542Z,7.03
2018-05-16T09:39:13.050Z,8.13
2018-05-16T09:41:42.287Z,8.20
2018-05-16T09:44:11.661Z,7.53
2018-05-16T09:46:40.895Z,7.93
2018-05-16T09:49:10.877Z,7.40
2018-05-16T09:51:40.105Z,7.87
2018-05-16T09:54:09.479Z,7.17
2018-05-16T09:56:39.084Z,6.93
2018-05-16T09:59:08.487Z,8.53
2018-05-16T10:01:37.732Z,7.90
2018-05-16T10:04:07.243Z,7.43
2018-05-16T10:06:36.490Z,7.87
2018-05-16T10:09:05.884Z,7.40
2018-05-16T10:11:35.070Z,7.70
2018-05-16T10:14:04.473Z,8.80
2018-05-16T10:16:33.701Z,7.97
2018-05-16T10:19:03.546Z,7.70
2018-05-16T10:21:32.785Z,7.30
2018-05-16T10:24:02.237Z,6.50
2018-05-16T10:26:31.452Z,7.37
2018-05-16T10:29:00.814Z,7.30
2018-05-16T10:31:30.039Z,6.43
2018-05-16T10:33:59.436Z,7.30
2018-05-16T10:36:29.433Z,7.50
2018-05-16T10:38:59.250Z,6.30
2018-05-16T10:41:29.438Z,6.50
2018-05-16T10:43:59.698Z,7.17
2018-05-16T10:46:29.204Z,6.47
2018-05-16T10:48:58.588Z,5.77
2018-05-16T10:51:28.211Z,6.17
2018-05-16T10:53:57.452Z,6.53
2018-05-16T10:56:26.831Z,5.90
2018-05-16T10:58:56.826Z,6.50
2018-05-16T11:01:26.171Z,6.20
2018-05-16T11:03:55.402Z,6.50
2018-05-16T11:06:24.838Z,6.30
2018-05-16T11:08:54.418Z,5.93
2018-05-16T11:11:24.258Z,5.90
2018-05-16T11:13:53.998Z,5.53
2018-05-16T11:16:24.159Z,8.60
2018-05-16T11:18:53.800Z,6.27
2018-05-16T11:21:23.738Z,6.33
2018-05-16T11:23:53.723Z,6.53
2018-05-16T11:26:23.042Z,5.27
2018-05-16T11:28:52.276Z,6.17
2018-05-16T11:31:21.741Z,6.43
2018-05-16T11:33:51.022Z,6.80
2018-05-16T11:36:20.251Z,6.70
2018-05-16T11:38:49.647Z,7.20
2018-05-16T11:41:18.878Z,7.30
2018-05-16T11:43:48.446Z,6.77
2018-05-16T11:46:17.691Z,7.03
2018-05-16T11:48:47.065Z,6.77
2018-05-16T11:51:16.971Z,6.80
2018-05-16T11:53:47.082Z,6.33
2018-05-16T11:56:16.325Z,5.83
2018-05-16T11:58:45.694Z,6.70
2018-05-16T12:01:15.110Z,5.60
2018-05-16T12:03:44.494Z,6.00
2018-05-16T12:06:13.740Z,6.10
2018-05-16T12:08:43.095Z,5.20
2018-05-16T12:11:12.575Z,6.30
2018-05-16T12:13:42.102Z,5.47
2018-05-16T12:16:11.354Z,5.63
2018-05-16T12:18:41.136Z,5.60
2018-05-16T12:21:11.137Z,5.90
2018-05-16T12:23:40.546Z,5.53
2018-05-16T12:26:09.775Z,5.00
2018-05-16T12:28:39.147Z,5.63
2018-05-16T12:31:09.225Z,5.30
2018-05-16T12:33:38.766Z,5.90
2018-05-16T12:36:08.002Z,5.67
2018-05-16T12:38:37.384Z,5.30
2018-05-16T12:41:07.388Z,5.13
2018-05-16T12:43:36.791Z,5.03
2018-05-16T12:46:06.023Z,6.17
2018-05-16T12:48:35.260Z,5.83
2018-05-16T12:51:04.708Z,5.30
2018-05-16T12:53:34.046Z,5.37
2018-05-16T12:56:03.511Z,5.23
2018-05-16T12:58:33.011Z,5.43
2018-05-16T13:01:02.523Z,5.50
2018-05-16T13:03:31.757Z,6.10
2018-05-16T13:06:01.118Z,5.20
2018-05-16T13:08:30.341Z,5.37
2018-05-16T13:10:59.697Z,5.33
2018-05-16T13:13:29.287Z,5.30
2018-05-16T13:15:58.632Z,5.80
2018-05-16T13:18:27.875Z,5.07
2018-05-16T13:20:57.334Z,5.23
2018-05-16T13:23:27.902Z,6.20
2018-05-16T13:25:57.370Z,6.63
2018-05-16T13:28:26.877Z,5.57
2018-05-16T13:30:56.548Z,6.70
2018-05-16T13:33:25.999Z,5.40
2018-05-16T13:35:55.250Z,5.10
2018-05-16T13:38:24.594Z,5.97
2018-05-16T13:40:53.818Z,5.97
2018-05-16T13:43:24.116Z,5.83
2018-05-16T13:45:53.347Z,5.80
2018-05-16T13:48:22.917Z,5.53
2018-05-16T13:50:52.231Z,5.70
2018-05-16T13:53:23.480Z,5.23
2018-05-16T13:55:52.704Z,5.63
2018-05-16T13:58:22.073Z,5.70
2018-05-16T14:00:51.298Z,5.90
2018-05-16T14:03:20.884Z,5.80
2018-05-16T14:05:51.178Z,5.47
2018-05-16T14:08:20.627Z,6.23
2018-05-16T14:10:50.116Z,7.20
2018-05-16T14:13:19.562Z,6.20
2018-05-16T14:15:48.914Z,6.53
2018-05-16T14:18:18.146Z,5.83
2018-05-16T14:20:47.497Z,5.93
2018-05-16T14:23:16.736Z,6.63
2018-05-16T14:25:47.076Z,6.10
2018-05-16T14:28:17.076Z,5.33
2018-05-16T14:30:46.435Z,5.30
2018-05-16T14:33:15.673Z,5.63
2018-05-16T14:35:45.069Z,5.80
2018-05-16T14:38:15.178Z,5.57
2018-05-16T14:40:44.593Z,6.10
2018-05-16T14:43:13.823Z,5.90
2018-05-16T14:45:43.360Z,6.30
2018-05-16T14:48:12.875Z,5.90
2018-05-16T14:50:42.398Z,7.33
2018-05-16T14:53:12.262Z,6.63
2018-05-16T14:55:41.503Z,6.77
2018-05-16T14:58:11.048Z,5.70
2018-05-16T15:00:41.251Z,5.10
2018-05-16T15:03:12.296Z,5.77
2018-05-16T15:05:41.539Z,5.80
2018-05-16T15:08:11.051Z,6.40
2018-05-16T15:10:40.262Z,5.70
2018-05-16T15:13:09.511Z,4.67
2018-05-16T15:15:39.006Z,5.37
2018-05-16T15:18:08.200Z,5.83
2018-05-16T15:20:37.707Z,5.70
2018-05-16T15:23:06.934Z,5.73
2018-05-16T15:25:36.290Z,4.50
2018-05-16T15:28:05.527Z,6.47
2018-05-16T15:30:34.912Z,8.13
2018-05-16T15:33:04.963Z,5.67
2018-05-16T15:35:34.255Z,6.30
2018-05-16T15:38:04.268Z,5.70
2018-05-16T15:40:34.071Z,5.43
2018-05-16T15:43:03.595Z,5.90
2018-05-16T15:45:33.097Z,5.70
2018-05-16T15:48:03.063Z,5.47
2018-05-16T15:50:32.509Z,6.93
2018-05-16T15:53:01.737Z,5.47
2018-05-16T15:55:31.166Z,5.57
2018-05-16T15:58:00.513Z,5.87
2018-05-16T16:00:30.837Z,5.90
2018-05-16T16:03:00.064Z,5.80
2018-05-16T16:05:29.440Z,5.20
2018-05-16T16:07:58.802Z,5.90
2018-05-16T16:10:28.862Z,5.60
2018-05-16T16:12:58.086Z,5.40
2018-05-16T16:15:28.164Z,7.20
2018-05-16T16:17:57.575Z,7.13
2018-05-16T16:20:26.805Z,5.93
2018-05-16T16:22:56.170Z,5.67
2018-05-16T16:25:26.381Z,5.70
2018-05-16T16:27:55.814Z,5.30
2018-05-16T16:30:25.036Z,6.10
2018-05-16T16:32:54.398Z,5.33
2018-05-16T16:35:23.628Z,5.50
2018-05-16T16:37:53.839Z,6.50
2018-05-16T16:40:23.058Z,6.03
2018-05-16T16:42:52.427Z,5.33
2018-05-16T16:45:21.676Z,5.53
2018-05-16T16:47:51.097Z,6.47
2018-05-16T16:50:20.376Z,6.00
2018-05-16T16:52:50.451Z,5.67
2018-05-16T16:55:20.515Z,6.77
2018-05-16T16:57:50.081Z,5.80
2018-05-16T17:00:20.424Z,5.97
2018-05-16T17:02:49.648Z,6.70
2018-05-16T17:05:19.038Z,6.57
2018-05-16T17:07:48.273Z,6.17
2018-05-16T17:10:17.807Z,5.80
2018-05-16T17:12:47.052Z,6.50
2018-05-16T17:15:16.418Z,5.73
2018-05-16T17:17:46.054Z,6.20
2018-05-16T17:20:15.438Z,5.00
2018-05-16T17:22:44.646Z,5.40
2018-05-16T17:25:14.034Z,5.43
2018-05-16T17:27:43.254Z,5.90
2018-05-16T17:30:12.606Z,5.87
2018-05-16T17:32:41.843Z,6.93
2018-05-16T17:35:11.219Z,6.57
2018-05-16T17:37:40.458Z,6.00
2018-05-16T17:40:09.872Z,7.03
2018-05-16T17:42:39.832Z,6.70
2018-05-16T17:45:09.579Z,6.37
2018-05-16T17:47:39.612Z,5.83
2018-05-16T17:50:08.871Z,5.90
2018-05-16T17:52:39.113Z,6.10
2018-05-16T17:55:08.620Z,7.73
2018-05-16T17:57:38.946Z,6.23
2018-05-16T18:00:08.950Z,7.60
2018-05-16T18:02:38.366Z,7.23
2018-05-16T18:05:08.376Z,7.10
2018-05-16T18:07:37.779Z,10.80
2018-05-16T18:10:07.023Z,6.77
2018-05-16T18:12:36.498Z,6.80
2018-05-16T18:15:25.127Z,7.23
2018-05-16T18:17:54.855Z,8.23
2018-05-16T18:20:24.554Z,8.40
2018-05-16T18:22:54.068Z,9.90
2018-05-16T18:25:23.331Z,10.90
2018-05-16T18:27:53.494Z,7.67
2018-05-16T18:30:23.498Z,8.43
2018-05-16T18:32:52.906Z,7.10
2018-05-16T18:35:22.147Z,7.83
2018-05-16T18:37:51.507Z,8.43
2018-05-16T18:40:20.759Z,8.10
2018-05-16T18:42:50.228Z,8.87
2018-05-16T18:45:19.638Z,8.77
2018-05-16T18:47:50.466Z,8.40
2018-05-16T18:50:19.809Z,9.13
2018-05-16T18:52:49.056Z,8.20
2018-05-16T18:55:18.390Z,8.47
2018-05-16T18:57:47.631Z,8.03
2018-05-16T19:00:17.906Z,8.67
2018-05-16T19:02:47.237Z,8.10
2018-05-16T19:05:16.587Z,8.03
2018-05-16T19:07:45.822Z,7.90
2018-05-16T19:10:15.395Z,7.60
2018-05-16T19:12:44.898Z,10.10
2018-05-16T19:15:15.028Z,7.90
2018-05-16T19:17:46.412Z,8.10
2018-05-16T19:20:16.162Z,7.20
2018-05-16T19:22:47.382Z,10.40
2018-05-16T19:25:16.735Z,7.23
2018-05-16T19:27:45.963Z,8.30
2018-05-16T19:30:15.338Z,8.10
2018-05-16T19:32:45.339Z,8.03
2018-05-16T19:35:14.706Z,7.67
2018-05-16T19:37:44.114Z,7.57
2018-05-16T19:40:15.237Z,7.20
2018-05-16T19:42:44.635Z,8.10
2018-05-16T19:45:14.032Z,8.50
2018-05-16T19:47:43.533Z,7.93
2018-05-16T19:50:13.543Z,7.83
2018-05-16T19:52:42.942Z,7.15
2018-05-16T19:55:12.220Z,6.27
2018-05-16T19:57:41.566Z,6.47
2018-05-16T20:00:10.838Z,7.50
2018-05-16T20:02:41.162Z,6.07
2018-05-16T20:05:11.176Z,6.50
2018-05-16T20:07:41.403Z,6.20
2018-05-16T20:10:11.410Z,6.68
2018-05-16T20:12:40.819Z,7.25
2018-05-16T20:15:10.071Z,5.95
2018-05-16T20:17:39.644Z,6.55
2018-05-16T20:20:09.661Z,6.85
2018-05-16T20:22:39.256Z,5.95
2018-05-16T20:25:08.966Z,6.70
2018-05-16T20:27:38.369Z,5.50
2018-05-16T20:30:08.547Z,6.00
2018-05-16T20:32:37.992Z,5.62
2018-05-16T20:35:08.098Z,5.65
2018-05-16T20:37:37.618Z,6.55
2018-05-16T20:40:06.871Z,6.55
2018-05-16T20:42:36.117Z,6.50
2018-05-16T20:45:05.935Z,7.37
2018-05-16T20:47:35.171Z,8.13
2018-05-16T20:50:04.535Z,5.60
2018-05-16T20:52:33.772Z,5.55
2018-05-16T20:55:03.346Z,5.60
2018-05-16T20:57:32.582Z,5.93
2018-05-16T21:00:01.964Z,9.10
2018-05-16T21:02:32.432Z,5.25
2018-05-16T21:05:03.003Z,7.50
2018-05-16T21:07:32.236Z,7.97
2018-05-16T21:10:02.487Z,5.35
2018-05-16T21:12:32.630Z,5.60
2018-05-16T21:15:02.050Z,9.27
2018-05-16T21:17:32.199Z,5.40
2018-05-16T21:20:02.115Z,6.37
2018-05-16T21:22:32.106Z,6.00
2018-05-16T21:25:01.529Z,5.50
2018-05-16T21:27:30.751Z,7.10
2018-05-16T21:30:00.311Z,5.60
2018-05-16T21:32:29.550Z,5.22
2018-05-16T21:34:58.928Z,24.30
2018-05-16T21:37:28.164Z,5.78
2018-05-16T21:39:57.512Z,6.45
2018-05-16T21:42:26.816Z,5.72
2018-05-16T21:44:56.332Z,11.77
2018-05-16T21:47:25.577Z,7.00
2018-05-16T21:49:54.822Z,11.48
2018-05-16T21:52:24.182Z,14.70
2018-05-16T21:54:53.527Z,5.87
2018-05-16T21:57:23.042Z,5.35
2018-05-16T21:59:52.456Z,5.30
2018-05-16T22:02:21.847Z,5.93
2018-05-16T22:04:51.082Z,6.95
2018-05-16T22:07:20.449Z,6.12
2018-05-16T22:09:49.689Z,5.90
2018-05-16T22:12:19.052Z,4.45
2018-05-16T22:14:49.960Z,4.82
2018-05-16T22:17:19.394Z,5.65
2018-05-16T22:19:48.996Z,4.72
2018-05-16T22:22:19.426Z,5.10
2018-05-16T22:24:48.931Z,5.40
2018-05-16T22:27:18.444Z,5.43
2018-05-16T22:29:47.679Z,5.40
2018-05-16T22:32:22.466Z,5.10
2018-05-16T22:34:57.307Z,4.22
2018-05-16T22:37:32.430Z,5.32
2018-05-16T22:40:07.227Z,5.45
2018-05-16T22:42:36.154Z,6.05
2018-05-16T22:45:05.391Z,5.00
2018-05-16T22:47:34.763Z,6.05
2018-05-16T22:50:03.996Z,5.28
2018-05-16T22:52:33.443Z,5.57
2018-05-16T22:55:02.951Z,6.12
2018-05-16T22:57:32.599Z,5.10
2018-05-16T23:00:02.598Z,4.57
2018-05-16T23:02:32.210Z,4.60
2018-05-16T23:05:01.447Z,5.05
2018-05-16T23:07:30.682Z,5.15
2018-05-16T23:10:00.111Z,4.55
2018-05-16T23:12:29.350Z,5.68
2018-05-16T23:14:58.914Z,5.50
2018-05-16T23:17:28.150Z,5.00
2018-05-16T23:19:57.515Z,5.22
2018-05-16T23:22:27.330Z,5.37
2018-05-16T23:24:57.452Z,5.55
2018-05-16T23:27:27.181Z,5.25
2018-05-16T23:29:56.568Z,4.80
2018-05-16T23:32:25.811Z,5.25
2018-05-16T23:34:55.168Z,4.85
2018-05-16T23:37:24.398Z,4.95
2018-05-16T23:39:53.742Z,5.10
2018-05-16T23:42:23.819Z,5.43
2018-05-16T23:44:53.187Z,5.35
2018-05-16T23:47:22.979Z,5.80
2018-05-16T23:49:52.409Z,5.00
2018-05-16T23:52:22.497Z,4.90
2018-05-16T23:54:52.055Z,5.00
2018-05-16T23:57:21.527Z,4.80
2018-05-16T23:59:50.765Z,4.75
